createdAt,value
2017-09-21T00:00:42.162Z,0.00
2017-09-21T00:01:42.248Z,0.00
2017-09-21T00:02:42.124Z,0.00
2017-09-21T00:03:42.107Z,0.00
2017-09-21T00:04:42.089Z,0.00
2017-09-21T00:05:42.071Z,0.00
2017-09-21T00:06:42.058Z,0.00
2017-09-21T00:07:42.139Z,0.00
2017-09-21T00:08:42.016Z,0.00
2017-09-21T00:09:42.004Z,0.00
2017-09-21T00:10:41.980Z,0.00
2017-09-21T00:11:41.962Z,0.00
2017-09-21T00:12:41.943Z,0.00
2017-09-21T00:13:42.023Z,0.00
2017-09-21T00:14:41.911Z,0.00
2017-09-21T00:15:41.893Z,0.00
2017-09-21T00:16:41.869Z,0.00
2017-09-21T00:17:41.851Z,0.00
2017-09-21T00:18:41.834Z,0.00
2017-09-21T00:19:41.920Z,0.00
2017-09-21T00:20:41.795Z,0.00
2017-09-21T00:21:41.784Z,0.00
2017-09-21T00:22:41.760Z,0.00
2017-09-21T00:23:41.740Z,0.00
2017-09-21T00:24:41.725Z,0.00
2017-09-21T00:25:41.805Z,0.00
2017-09-21T00:26:41.686Z,0.00
2017-09-21T00:27:41.668Z,0.00
2017-09-21T00:28:41.656Z,0.00
2017-09-21T00:29:41.637Z,0.00
2017-09-21T00:30:41.618Z,0.00
2017-09-21T00:31:41.695Z,0.00
2017-09-21T00:32:41.574Z,0.00
2017-09-21T00:33:41.561Z,0.00
2017-09-21T00:34:41.538Z,0.00
2017-09-21T00:35:41.521Z,0.00
2017-09-21T00:36:41.501Z,0.00
2017-09-21T00:37:41.583Z,0.00
2017-09-21T00:38:41.469Z,0.00
2017-09-21T00:39:41.447Z,0.00
2017-09-21T00:40:41.425Z,0.00
2017-09-21T00:41:41.408Z,0.00
2017-09-21T00:42:41.390Z,0.00
2017-09-21T00:43:41.470Z,0.00
2017-09-21T00:44:41.357Z,0.00
2017-09-21T00:45:41.333Z,0.00
2017-09-21T00:46:41.315Z,0.00
2017-09-21T00:47:41.296Z,0.00
2017-09-21T00:48:41.290Z,0.00
2017-09-21T00:49:41.359Z,0.00
2017-09-21T00:50:41.490Z,0.00
2017-09-21T00:51:41.222Z,0.00
2017-09-21T00:52:41.203Z,0.00
2017-09-21T00:53:41.195Z,0.00
2017-09-21T00:54:41.168Z,0.00
2017-09-21T00:55:41.149Z,0.00
2017-09-21T00:56:41.279Z,0.00
2017-09-21T00:57:41.117Z,0.00
2017-09-21T00:58:41.097Z,0.00
2017-09-21T00:59:41.073Z,0.00
2017-09-21T01:00:41.064Z,0.00
2017-09-21T01:01:41.041Z,0.00
2017-09-21T01:02:41.119Z,0.00
2017-09-21T01:03:41.004Z,0.00
2017-09-21T01:04:40.986Z,0.00
2017-09-21T01:05:40.960Z,0.00
2017-09-21T01:06:40.976Z,0.00
2017-09-21T01:07:40.925Z,0.00
2017-09-21T01:08:41.054Z,0.00
2017-09-21T01:09:40.887Z,0.00
2017-09-21T01:10:40.868Z,0.00
2017-09-21T01:11:40.850Z,0.00
2017-09-21T01:12:40.830Z,0.00
2017-09-21T01:13:40.812Z,0.00
2017-09-21T01:14:40.899Z,0.00
2017-09-21T01:15:40.775Z,0.00
2017-09-21T01:16:40.761Z,0.00
2017-09-21T01:17:40.736Z,0.00
2017-09-21T01:18:40.717Z,0.00
2017-09-21T01:19:40.701Z,0.00
2017-09-21T01:20:40.979Z,0.00
2017-09-21T01:21:40.662Z,0.00
2017-09-21T01:22:40.648Z,0.00
2017-09-21T01:23:40.623Z,0.00
2017-09-21T01:24:40.605Z,0.00
2017-09-21T01:25:40.585Z,0.00
2017-09-21T01:26:40.717Z,0.00
2017-09-21T01:27:40.551Z,0.00
2017-09-21T01:28:40.534Z,0.00
2017-09-21T01:29:40.510Z,0.00
2017-09-21T01:30:40.492Z,0.00
2017-09-21T01:31:40.478Z,0.00
2017-09-21T01:32:40.715Z,0.00
2017-09-21T01:33:40.439Z,0.00
2017-09-21T01:34:40.415Z,0.00
2017-09-21T01:35:40.398Z,0.00
2017-09-21T01:36:40.386Z,0.00
2017-09-21T01:37:40.365Z,0.00
2017-09-21T01:38:40.440Z,0.00
2017-09-21T01:39:40.321Z,0.00
2017-09-21T01:40:40.300Z,0.00
2017-09-21T01:41:40.282Z,0.00
2017-09-21T01:42:40.264Z,0.00
2017-09-21T01:43:40.243Z,0.00
2017-09-21T01:44:40.326Z,0.00
2017-09-21T01:45:40.206Z,0.00
2017-09-21T01:46:40.188Z,0.00
2017-09-21T01:47:40.167Z,0.00
2017-09-21T01:48:40.148Z,0.00
2017-09-21T01:49:40.136Z,0.00
2017-09-21T01:50:40.211Z,0.00
2017-09-21T01:51:40.097Z,0.00
2017-09-21T01:52:40.072Z,0.00
2017-09-21T01:53:40.053Z,0.00
2017-09-21T01:54:40.034Z,0.00
2017-09-21T01:55:40.021Z,0.00
2017-09-21T01:56:40.097Z,0.00
2017-09-21T01:57:39.982Z,0.00
2017-09-21T01:58:39.959Z,0.00
2017-09-21T01:59:39.940Z,0.00
2017-09-21T02:00:39.925Z,0.00
2017-09-21T02:01:39.906Z,0.00
2017-09-21T02:02:39.982Z,0.00
2017-09-21T02:03:39.863Z,0.00
2017-09-21T02:04:39.842Z,0.00
2017-09-21T02:05:39.823Z,0.00
2017-09-21T02:06:39.807Z,0.00
2017-09-21T02:07:39.786Z,0.00
2017-09-21T02:08:39.866Z,0.00
2017-09-21T02:09:39.748Z,0.00
2017-09-21T02:10:39.730Z,0.00
2017-09-21T02:11:39.717Z,0.00
2017-09-21T02:12:39.690Z,0.00
2017-09-21T02:13:39.671Z,0.00
2017-09-21T02:14:39.753Z,0.00
2017-09-21T02:15:39.633Z,0.00
2017-09-21T02:16:39.614Z,0.00
2017-09-21T02:17:39.600Z,0.00
2017-09-21T02:18:39.575Z,0.00
2017-09-21T02:19:39.563Z,0.00
2017-09-21T02:20:39.637Z,0.00
2017-09-21T02:21:39.524Z,0.00
2017-09-21T02:22:39.499Z,0.00
2017-09-21T02:23:39.480Z,0.00
2017-09-21T02:24:39.463Z,0.00
2017-09-21T02:25:39.442Z,0.00
2017-09-21T02:26:39.524Z,0.00
2017-09-21T02:27:39.410Z,0.00
2017-09-21T02:28:39.390Z,0.00
2017-09-21T02:29:39.372Z,0.00
2017-09-21T02:30:39.347Z,0.00
2017-09-21T02:31:39.328Z,0.00
2017-09-21T02:32:39.415Z,0.00
2017-09-21T02:33:39.289Z,0.00
2017-09-21T02:34:39.269Z,0.00
2017-09-21T02:35:39.256Z,0.00
2017-09-21T02:36:39.231Z,0.00
2017-09-21T02:37:39.218Z,0.00
2017-09-21T02:38:39.292Z,0.00
2017-09-21T02:39:39.174Z,0.00
2017-09-21T02:40:39.154Z,0.00
2017-09-21T02:41:39.141Z,0.00
2017-09-21T02:42:39.119Z,0.00
2017-09-21T02:43:39.096Z,0.00
2017-09-21T02:44:39.177Z,0.00
2017-09-21T02:45:39.058Z,0.00
2017-09-21T02:46:39.063Z,0.00
2017-09-21T02:47:39.019Z,0.00
2017-09-21T02:48:39.005Z,0.00
2017-09-21T02:49:38.983Z,0.00
2017-09-21T02:50:39.068Z,0.00
2017-09-21T02:51:38.943Z,0.00
2017-09-21T02:52:38.930Z,0.00
2017-09-21T02:53:38.903Z,0.00
2017-09-21T02:54:38.992Z,0.00
2017-09-21T02:55:38.866Z,0.00
2017-09-21T02:56:38.946Z,0.00
2017-09-21T02:57:38.826Z,0.00
2017-09-21T02:58:38.809Z,0.00
2017-09-21T02:59:38.796Z,0.00
2017-09-21T03:00:38.775Z,0.00
2017-09-21T03:01:38.751Z,0.00
2017-09-21T03:02:38.832Z,0.00
2017-09-21T03:03:38.713Z,0.00
2017-09-21T03:04:38.692Z,0.00
2017-09-21T03:05:38.678Z,0.00
2017-09-21T03:06:38.660Z,0.00
2017-09-21T03:07:38.636Z,0.00
2017-09-21T03:08:38.717Z,0.00
2017-09-21T03:09:38.603Z,0.00
2017-09-21T03:10:38.577Z,0.00
2017-09-21T03:11:38.559Z,0.00
2017-09-21T03:12:38.540Z,0.00
2017-09-21T03:13:38.520Z,0.00
2017-09-21T03:14:38.601Z,0.00
2017-09-21T03:15:38.482Z,0.00
2017-09-21T03:16:38.460Z,0.00
2017-09-21T03:17:38.442Z,0.00
2017-09-21T03:18:38.423Z,0.00
2017-09-21T03:19:38.419Z,0.00
2017-09-21T03:20:38.489Z,0.00
2017-09-21T03:21:38.365Z,0.00
2017-09-21T03:22:38.346Z,0.00
2017-09-21T03:23:38.329Z,0.00
2017-09-21T03:24:38.313Z,0.00
2017-09-21T03:25:38.286Z,0.00
2017-09-21T03:26:38.369Z,0.00
2017-09-21T03:27:38.255Z,0.00
2017-09-21T03:28:38.234Z,0.00
2017-09-21T03:29:38.209Z,0.00
2017-09-21T03:30:38.192Z,0.00
2017-09-21T03:31:38.170Z,0.00
2017-09-21T03:32:38.251Z,0.00
2017-09-21T03:33:38.138Z,0.00
2017-09-21T03:34:38.113Z,0.00
2017-09-21T03:35:38.094Z,0.00
2017-09-21T03:36:38.074Z,0.00
2017-09-21T03:37:38.054Z,0.00
2017-09-21T03:38:38.135Z,0.00
2017-09-21T03:39:38.022Z,0.00
2017-09-21T03:40:37.996Z,0.00
2017-09-21T03:41:37.977Z,0.00
2017-09-21T03:42:37.957Z,0.00
2017-09-21T03:43:37.940Z,0.00
2017-09-21T03:44:38.018Z,0.00
2017-09-21T03:45:37.907Z,0.00
2017-09-21T03:46:37.886Z,0.00
2017-09-21T03:47:37.861Z,0.00
2017-09-21T03:48:37.840Z,0.00
2017-09-21T03:49:37.926Z,0.00
2017-09-21T03:50:37.905Z,0.00
2017-09-21T03:51:37.783Z,0.00
2017-09-21T03:52:37.768Z,0.00
2017-09-21T03:53:37.744Z,0.00
2017-09-21T03:54:37.723Z,0.00
2017-09-21T03:55:37.705Z,0.00
2017-09-21T03:56:37.785Z,0.00
2017-09-21T03:57:37.666Z,0.00
2017-09-21T03:58:37.752Z,0.00
2017-09-21T03:59:37.628Z,0.00
2017-09-21T04:00:37.613Z,0.00
2017-09-21T04:01:37.589Z,0.00
2017-09-21T04:02:37.670Z,0.00
2017-09-21T04:03:37.549Z,0.00
2017-09-21T04:04:37.530Z,0.00
2017-09-21T04:05:37.616Z,0.00
2017-09-21T04:06:37.492Z,0.00
2017-09-21T04:07:37.474Z,0.00
2017-09-21T04:08:37.551Z,0.00
2017-09-21T04:09:37.431Z,0.00
2017-09-21T04:10:37.415Z,0.00
2017-09-21T04:11:37.393Z,0.00
2017-09-21T04:12:37.373Z,0.00
2017-09-21T04:13:37.353Z,0.00
2017-09-21T04:14:37.434Z,0.00
2017-09-21T04:15:37.317Z,0.00
2017-09-21T04:16:37.301Z,0.00
2017-09-21T04:17:37.281Z,0.00
2017-09-21T04:18:37.261Z,0.00
2017-09-21T04:19:37.238Z,0.00
2017-09-21T04:20:37.316Z,0.00
2017-09-21T04:21:37.298Z,0.00
2017-09-21T04:22:37.176Z,0.00
2017-09-21T04:23:37.158Z,0.00
2017-09-21T04:24:37.143Z,0.00
2017-09-21T04:25:37.118Z,0.00
2017-09-21T04:26:37.207Z,0.00
2017-09-21T04:27:37.080Z,0.00
2017-09-21T04:28:37.065Z,0.00
2017-09-21T04:29:37.041Z,0.00
2017-09-21T04:30:37.023Z,0.00
2017-09-21T04:31:37.002Z,0.00
2017-09-21T04:32:37.081Z,0.00
2017-09-21T04:33:36.967Z,0.00
2017-09-21T04:34:36.941Z,0.00
2017-09-21T04:35:36.923Z,0.00
2017-09-21T04:36:36.902Z,0.00
2017-09-21T04:37:36.883Z,0.00
2017-09-21T04:38:36.969Z,0.00
2017-09-21T04:39:36.850Z,0.00
2017-09-21T04:40:36.825Z,0.00
2017-09-21T04:41:36.805Z,0.00
2017-09-21T04:42:36.791Z,0.00
2017-09-21T04:43:36.766Z,0.00
2017-09-21T04:44:36.845Z,0.00
2017-09-21T04:45:36.733Z,0.00
2017-09-21T04:46:36.709Z,0.00
2017-09-21T04:47:36.688Z,0.00
2017-09-21T04:48:36.768Z,0.00
2017-09-21T04:49:36.655Z,0.00
2017-09-21T04:50:36.730Z,0.00
2017-09-21T04:51:36.610Z,0.00
2017-09-21T04:52:36.591Z,0.00
2017-09-21T04:53:36.576Z,0.00
2017-09-21T04:54:36.551Z,0.00
2017-09-21T04:55:36.534Z,0.00
2017-09-21T04:56:36.613Z,0.00
2017-09-21T04:57:36.498Z,0.00
2017-09-21T04:58:36.476Z,0.00
2017-09-21T04:59:36.454Z,0.00
2017-09-21T05:00:36.439Z,0.00
2017-09-21T05:01:36.414Z,0.00
2017-09-21T05:02:36.495Z,0.00
2017-09-21T05:03:36.381Z,0.00
2017-09-21T05:04:36.356Z,0.00
2017-09-21T05:05:36.336Z,0.00
2017-09-21T05:06:36.318Z,0.00
2017-09-21T05:07:36.299Z,0.00
2017-09-21T05:08:36.379Z,0.00
2017-09-21T05:09:36.259Z,0.00
2017-09-21T05:10:36.245Z,0.00
2017-09-21T05:11:36.221Z,0.00
2017-09-21T05:12:36.205Z,5.63
2017-09-21T05:13:36.181Z,5.63
2017-09-21T05:14:36.260Z,5.63
2017-09-21T05:15:36.147Z,5.63
2017-09-21T05:16:36.126Z,5.63
2017-09-21T05:17:36.109Z,5.63
2017-09-21T05:18:36.083Z,5.63
2017-09-21T05:19:36.063Z,5.63
2017-09-21T05:20:36.143Z,5.63
2017-09-21T05:21:36.024Z,5.63
2017-09-21T05:22:36.004Z,5.63
2017-09-21T05:23:35.986Z,5.63
2017-09-21T05:24:35.965Z,11.25
2017-09-21T05:25:35.944Z,11.25
2017-09-21T05:26:36.025Z,11.25
2017-09-21T05:27:35.908Z,11.25
2017-09-21T05:28:35.886Z,11.25
2017-09-21T05:29:35.873Z,11.25
2017-09-21T05:30:35.847Z,11.25
2017-09-21T05:31:35.828Z,11.25
2017-09-21T05:32:35.909Z,11.25
2017-09-21T05:33:35.790Z,11.25
2017-09-21T05:34:35.770Z,11.25
2017-09-21T05:35:35.752Z,16.88
2017-09-21T05:36:35.730Z,16.88
2017-09-21T05:37:35.711Z,16.88
2017-09-21T05:38:35.793Z,16.88
2017-09-21T05:39:35.679Z,16.88
2017-09-21T05:40:35.758Z,16.88
2017-09-21T05:41:35.634Z,16.88
2017-09-21T05:42:35.618Z,16.88
2017-09-21T05:43:35.596Z,16.88
2017-09-21T05:44:35.677Z,16.88
2017-09-21T05:45:35.556Z,16.88
2017-09-21T05:46:35.538Z,22.50
2017-09-21T05:47:35.520Z,22.50
2017-09-21T05:48:35.498Z,22.50
2017-09-21T05:49:35.477Z,22.50
2017-09-21T05:50:35.564Z,22.50
2017-09-21T05:51:35.544Z,22.50
2017-09-21T05:52:35.426Z,22.50
2017-09-21T05:53:35.403Z,22.50
2017-09-21T05:54:35.381Z,22.50
2017-09-21T05:55:35.365Z,22.50
2017-09-21T05:56:35.343Z,22.50
2017-09-21T05:57:35.427Z,22.50
2017-09-21T05:58:35.304Z,28.13
2017-09-21T05:59:35.286Z,28.13
2017-09-21T06:00:35.271Z,28.13
2017-09-21T06:01:35.251Z,28.13
2017-09-21T06:02:35.227Z,28.13
2017-09-21T06:03:35.310Z,28.13
2017-09-21T06:04:35.189Z,28.13
2017-09-21T06:05:35.175Z,28.13
2017-09-21T06:06:35.156Z,28.13
2017-09-21T06:07:35.131Z,28.13
2017-09-21T06:08:35.212Z,28.13
2017-09-21T06:09:35.193Z,28.13
2017-09-21T06:10:35.073Z,28.13
2017-09-21T06:11:35.061Z,33.75
2017-09-21T06:12:35.042Z,33.75
2017-09-21T06:13:35.023Z,33.75
2017-09-21T06:14:35.004Z,33.75
2017-09-21T06:15:35.080Z,33.75
2017-09-21T06:16:34.958Z,33.75
2017-09-21T06:17:34.939Z,33.75
2017-09-21T06:18:34.926Z,33.75
2017-09-21T06:19:34.902Z,33.75
2017-09-21T06:20:34.881Z,50.63
2017-09-21T06:21:34.964Z,61.88
2017-09-21T06:22:34.851Z,73.13
2017-09-21T06:23:34.827Z,78.75
2017-09-21T06:24:34.809Z,84.38
2017-09-21T06:25:34.796Z,84.38
2017-09-21T06:26:34.776Z,84.38
2017-09-21T06:27:34.854Z,78.75
2017-09-21T06:28:34.735Z,78.75
2017-09-21T06:29:34.718Z,78.75
2017-09-21T06:30:34.701Z,78.75
2017-09-21T06:31:34.683Z,84.38
2017-09-21T06:32:34.670Z,84.38
2017-09-21T06:33:34.746Z,84.38
2017-09-21T06:34:34.629Z,84.38
2017-09-21T06:35:34.619Z,84.38
2017-09-21T06:36:34.597Z,84.38
2017-09-21T06:37:34.584Z,90.00
2017-09-21T06:38:34.561Z,90.00
2017-09-21T06:39:34.651Z,90.00
2017-09-21T06:40:34.527Z,90.00
2017-09-21T06:41:34.512Z,90.00
2017-09-21T06:42:34.497Z,90.00
2017-09-21T06:43:34.481Z,90.00
2017-09-21T06:44:34.463Z,90.00
2017-09-21T06:45:34.553Z,90.00
2017-09-21T06:46:34.532Z,95.63
2017-09-21T06:47:34.418Z,95.63
2017-09-21T06:48:34.402Z,95.63
2017-09-21T06:49:34.391Z,95.63
2017-09-21T06:50:34.371Z,101.25
2017-09-21T06:51:34.456Z,101.25
2017-09-21T06:52:34.341Z,101.25
2017-09-21T06:53:34.333Z,101.25
2017-09-21T06:54:34.411Z,101.25
2017-09-21T06:55:34.300Z,101.25
2017-09-21T06:56:34.279Z,101.25
2017-09-21T06:57:34.270Z,106.88
2017-09-21T06:58:34.348Z,106.88
2017-09-21T06:59:34.234Z,106.88
2017-09-21T07:00:34.320Z,106.88
2017-09-21T07:01:34.206Z,112.50
2017-09-21T07:02:34.191Z,112.50
2017-09-21T07:03:34.176Z,112.50
2017-09-21T07:04:34.260Z,112.50
2017-09-21T07:05:34.151Z,112.50
2017-09-21T07:06:34.132Z,118.13
2017-09-21T07:07:34.120Z,118.13
2017-09-21T07:08:34.106Z,118.13
2017-09-21T07:09:34.091Z,118.13
2017-09-21T07:10:34.177Z,118.13
2017-09-21T07:11:34.063Z,118.13
2017-09-21T07:12:34.047Z,118.13
2017-09-21T07:13:34.036Z,118.13
2017-09-21T07:14:34.021Z,123.75
2017-09-21T07:15:34.008Z,123.75
2017-09-21T07:16:34.094Z,123.75
2017-09-21T07:17:33.981Z,123.75
2017-09-21T07:18:34.067Z,123.75
2017-09-21T07:19:33.954Z,123.75
2017-09-21T07:20:33.942Z,123.75
2017-09-21T07:21:33.932Z,123.75
2017-09-21T07:22:34.014Z,123.75
2017-09-21T07:23:33.900Z,123.75
2017-09-21T07:24:33.892Z,123.75
2017-09-21T07:25:33.874Z,123.75
2017-09-21T07:26:33.861Z,123.75
2017-09-21T07:27:33.854Z,129.38
2017-09-21T07:28:33.935Z,123.75
2017-09-21T07:29:33.921Z,123.75
2017-09-21T07:30:33.808Z,123.75
2017-09-21T07:31:33.795Z,123.75
2017-09-21T07:32:33.782Z,123.75
2017-09-21T07:33:33.774Z,129.38
2017-09-21T07:34:33.857Z,129.38
2017-09-21T07:35:33.747Z,129.38
2017-09-21T07:36:33.736Z,129.38
2017-09-21T07:37:33.717Z,129.38
2017-09-21T07:38:33.703Z,129.38
2017-09-21T07:39:33.690Z,135.00
2017-09-21T07:40:33.781Z,129.38
2017-09-21T07:41:33.764Z,129.38
2017-09-21T07:42:33.652Z,129.38
2017-09-21T07:43:33.637Z,129.38
2017-09-21T07:44:33.625Z,135.00
2017-09-21T07:45:33.612Z,135.00
2017-09-21T07:46:33.601Z,135.00
2017-09-21T07:47:33.690Z,135.00
2017-09-21T07:48:33.579Z,135.00
2017-09-21T07:49:33.564Z,140.63
2017-09-21T07:50:33.552Z,140.63
2017-09-21T07:51:33.542Z,146.25
2017-09-21T07:52:33.537Z,146.25
2017-09-21T07:53:33.619Z,157.50
2017-09-21T07:54:33.609Z,180.00
2017-09-21T07:55:33.504Z,765.00
2017-09-21T07:56:33.487Z,1878.75
2017-09-21T07:57:33.480Z,2947.50
2017-09-21T07:58:33.469Z,3757.50
2017-09-21T07:59:33.463Z,3864.38
2017-09-21T08:00:33.560Z,3813.75
2017-09-21T08:01:33.452Z,3870.00
2017-09-21T08:02:33.439Z,4078.13
2017-09-21T08:03:33.435Z,4190.63
2017-09-21T08:04:33.432Z,4078.13
2017-09-21T08:05:33.428Z,3825.00
2017-09-21T08:06:33.518Z,3718.13
2017-09-21T08:07:33.414Z,3712.50
2017-09-21T08:08:33.407Z,3774.38
2017-09-21T08:09:33.405Z,3954.38
2017-09-21T08:10:33.403Z,4027.50
2017-09-21T08:11:33.402Z,4128.75
2017-09-21T08:12:33.497Z,4207.50
2017-09-21T08:13:33.403Z,4027.50
2017-09-21T08:14:33.397Z,3875.63
2017-09-21T08:15:33.403Z,3841.88
2017-09-21T08:16:33.399Z,3971.25
2017-09-21T08:17:33.397Z,4061.25
2017-09-21T08:18:33.498Z,4201.88
2017-09-21T08:19:33.402Z,4843.13
2017-09-21T08:20:33.408Z,4753.13
2017-09-21T08:21:33.404Z,4201.88
2017-09-21T08:22:33.410Z,3937.50
2017-09-21T08:23:33.411Z,3785.63
2017-09-21T08:24:33.515Z,3560.63
2017-09-21T08:25:33.418Z,3656.25
2017-09-21T08:26:33.423Z,4044.38
2017-09-21T08:27:33.428Z,4280.63
2017-09-21T08:28:33.437Z,4303.13
2017-09-21T08:29:33.437Z,4207.50
2017-09-21T08:30:33.542Z,4156.88
2017-09-21T08:31:33.448Z,4269.38
2017-09-21T08:32:33.455Z,4410.00
2017-09-21T08:33:33.462Z,4404.38
2017-09-21T08:34:33.463Z,4381.88
2017-09-21T08:35:33.470Z,4196.25
2017-09-21T08:36:33.579Z,4111.88
2017-09-21T08:37:33.481Z,4353.75
2017-09-21T08:38:33.493Z,4291.88
2017-09-21T08:39:33.600Z,4263.75
2017-09-21T08:40:33.500Z,4213.13
2017-09-21T08:41:33.508Z,3982.50
2017-09-21T08:42:33.615Z,3386.25
2017-09-21T08:43:33.527Z,2497.50
2017-09-21T08:44:33.526Z,1428.75
2017-09-21T08:45:33.532Z,551.25
2017-09-21T08:46:33.543Z,309.38
2017-09-21T08:47:33.549Z,309.38
2017-09-21T08:48:33.648Z,303.75
2017-09-21T08:49:33.554Z,303.75
2017-09-21T08:50:33.558Z,298.13
2017-09-21T08:51:33.561Z,292.50
2017-09-21T08:52:33.565Z,292.50
2017-09-21T08:53:33.568Z,292.50
2017-09-21T08:54:33.670Z,292.50
2017-09-21T08:55:33.577Z,286.88
2017-09-21T08:56:33.573Z,286.88
2017-09-21T08:57:33.574Z,286.88
2017-09-21T08:58:33.575Z,286.88
2017-09-21T08:59:33.573Z,286.88
2017-09-21T09:00:33.673Z,286.88
2017-09-21T09:01:33.571Z,286.88
2017-09-21T09:02:33.571Z,286.88
2017-09-21T09:03:33.569Z,286.88
2017-09-21T09:04:33.567Z,281.25
2017-09-21T09:05:33.563Z,281.25
2017-09-21T09:06:33.660Z,281.25
2017-09-21T09:07:33.555Z,270.00
2017-09-21T09:08:33.554Z,264.38
2017-09-21T09:09:33.549Z,253.13
2017-09-21T09:10:33.546Z,236.25
2017-09-21T09:11:33.539Z,213.75
2017-09-21T09:12:33.634Z,185.63
2017-09-21T09:13:33.529Z,168.75
2017-09-21T09:14:33.522Z,151.88
2017-09-21T09:15:33.518Z,140.63
2017-09-21T09:16:33.512Z,135.00
2017-09-21T09:17:33.510Z,135.00
2017-09-21T09:18:33.601Z,135.00
2017-09-21T09:19:33.600Z,135.00
2017-09-21T09:20:33.489Z,135.00
2017-09-21T09:21:33.484Z,135.00
2017-09-21T09:22:33.472Z,135.00
2017-09-21T09:23:33.470Z,135.00
2017-09-21T09:24:33.562Z,135.00
2017-09-21T09:25:33.451Z,135.00
2017-09-21T09:26:33.441Z,135.00
2017-09-21T09:27:33.439Z,135.00
2017-09-21T09:28:33.430Z,135.00
2017-09-21T09:29:33.427Z,135.00
2017-09-21T09:30:33.511Z,135.00
2017-09-21T09:31:33.401Z,135.00
2017-09-21T09:32:33.392Z,135.00
2017-09-21T09:33:33.384Z,135.00
2017-09-21T09:34:33.377Z,135.00
2017-09-21T09:35:33.366Z,140.63
2017-09-21T09:36:33.463Z,140.63
2017-09-21T09:37:33.351Z,140.63
2017-09-21T09:38:33.340Z,140.63
2017-09-21T09:39:33.337Z,135.00
2017-09-21T09:40:33.321Z,135.00
2017-09-21T09:41:33.312Z,140.63
2017-09-21T09:42:33.402Z,140.63
2017-09-21T09:43:33.294Z,140.63
2017-09-21T09:44:33.288Z,140.63
2017-09-21T09:45:33.273Z,140.63
2017-09-21T09:46:33.366Z,140.63
2017-09-21T09:47:33.260Z,140.63
2017-09-21T09:48:33.349Z,140.63
2017-09-21T09:49:33.241Z,140.63
2017-09-21T09:50:33.225Z,140.63
2017-09-21T09:51:33.215Z,140.63
2017-09-21T09:52:33.205Z,140.63
2017-09-21T09:53:33.197Z,146.25
2017-09-21T09:54:33.289Z,140.63
2017-09-21T09:55:33.177Z,140.63
2017-09-21T09:56:33.166Z,140.63
2017-09-21T09:57:33.257Z,140.63
2017-09-21T09:58:33.147Z,146.25
2017-09-21T09:59:33.138Z,140.63
2017-09-21T10:00:33.227Z,140.63
2017-09-21T10:01:33.117Z,140.63
2017-09-21T10:02:33.115Z,140.63
2017-09-21T10:03:33.102Z,140.63
2017-09-21T10:04:33.086Z,140.63
2017-09-21T10:05:33.083Z,140.63
2017-09-21T10:06:33.173Z,140.63
2017-09-21T10:07:33.058Z,140.63
2017-09-21T10:08:33.052Z,140.63
2017-09-21T10:09:33.036Z,140.63
2017-09-21T10:10:33.027Z,140.63
2017-09-21T10:11:33.017Z,140.63
2017-09-21T10:12:33.107Z,140.63
2017-09-21T10:13:32.995Z,140.63
2017-09-21T10:14:32.991Z,140.63
2017-09-21T10:15:32.976Z,140.63
2017-09-21T10:16:32.965Z,140.63
2017-09-21T10:17:32.957Z,140.63
2017-09-21T10:18:33.046Z,140.63
2017-09-21T10:19:32.937Z,140.63
2017-09-21T10:20:32.925Z,140.63
2017-09-21T10:21:32.916Z,140.63
2017-09-21T10:22:32.906Z,140.63
2017-09-21T10:23:32.899Z,140.63
2017-09-21T10:24:32.988Z,140.63
2017-09-21T10:25:32.883Z,140.63
2017-09-21T10:26:32.873Z,140.63
2017-09-21T10:27:32.863Z,140.63
2017-09-21T10:28:32.848Z,140.63
2017-09-21T10:29:32.843Z,140.63
2017-09-21T10:30:32.934Z,140.63
2017-09-21T10:31:32.821Z,140.63
2017-09-21T10:32:32.809Z,140.63
2017-09-21T10:33:32.798Z,140.63
2017-09-21T10:34:32.890Z,140.63
2017-09-21T10:35:32.782Z,140.63
2017-09-21T10:36:32.875Z,140.63
2017-09-21T10:37:32.761Z,140.63
2017-09-21T10:38:32.751Z,140.63
2017-09-21T10:39:32.742Z,140.63
2017-09-21T10:40:32.730Z,140.63
2017-09-21T10:41:32.827Z,140.63
2017-09-21T10:42:32.813Z,140.63
2017-09-21T10:43:32.711Z,140.63
2017-09-21T10:44:32.693Z,135.00
2017-09-21T10:45:32.682Z,135.00
2017-09-21T10:46:32.679Z,140.63
2017-09-21T10:47:32.664Z,140.63
2017-09-21T10:48:32.753Z,140.63
2017-09-21T10:49:32.645Z,140.63
2017-09-21T10:50:32.641Z,135.00
2017-09-21T10:51:32.626Z,140.63
2017-09-21T10:52:32.615Z,140.63
2017-09-21T10:53:32.606Z,135.00
2017-09-21T10:54:32.704Z,135.00
2017-09-21T10:55:32.594Z,135.00
2017-09-21T10:56:32.578Z,135.00
2017-09-21T10:57:32.571Z,135.00
2017-09-21T10:58:32.567Z,135.00
2017-09-21T10:59:32.557Z,135.00
2017-09-21T11:00:32.642Z,135.00
2017-09-21T11:01:32.537Z,135.00
2017-09-21T11:02:32.528Z,135.00
2017-09-21T11:03:32.518Z,135.00
2017-09-21T11:04:32.509Z,135.00
2017-09-21T11:05:32.494Z,135.00
2017-09-21T11:06:32.591Z,135.00
2017-09-21T11:07:32.477Z,135.00
2017-09-21T11:08:32.469Z,135.00
2017-09-21T11:09:32.462Z,135.00
2017-09-21T11:10:32.450Z,135.00
2017-09-21T11:11:32.445Z,135.00
2017-09-21T11:12:32.529Z,135.00
2017-09-21T11:13:32.420Z,135.00
2017-09-21T11:14:32.412Z,135.00
2017-09-21T11:15:32.408Z,135.00
2017-09-21T11:16:32.394Z,135.00
2017-09-21T11:17:32.400Z,135.00
2017-09-21T11:18:32.476Z,135.00
2017-09-21T11:19:32.369Z,135.00
2017-09-21T11:20:32.357Z,135.00
2017-09-21T11:21:32.351Z,135.00
2017-09-21T11:22:32.342Z,135.00
2017-09-21T11:23:32.333Z,135.00
2017-09-21T11:24:32.417Z,135.00
2017-09-21T11:25:32.310Z,135.00
2017-09-21T11:26:32.400Z,135.00
2017-09-21T11:27:32.296Z,135.00
2017-09-21T11:28:32.286Z,135.00
2017-09-21T11:29:32.278Z,135.00
2017-09-21T11:30:32.364Z,135.00
2017-09-21T11:31:32.255Z,135.00
2017-09-21T11:32:32.245Z,135.00
2017-09-21T11:33:32.235Z,135.00
2017-09-21T11:34:32.226Z,135.00
2017-09-21T11:35:32.217Z,129.38
2017-09-21T11:36:32.306Z,129.38
2017-09-21T11:37:32.204Z,129.38
2017-09-21T11:38:32.191Z,129.38
2017-09-21T11:39:32.181Z,129.38
2017-09-21T11:40:32.173Z,129.38
2017-09-21T11:41:32.161Z,129.38
2017-09-21T11:42:32.253Z,129.38
2017-09-21T11:43:32.150Z,129.38
2017-09-21T11:44:32.136Z,129.38
2017-09-21T11:45:32.126Z,129.38
2017-09-21T11:46:32.115Z,129.38
2017-09-21T11:47:32.108Z,129.38
2017-09-21T11:48:32.198Z,129.38
2017-09-21T11:49:32.089Z,129.38
2017-09-21T11:50:32.085Z,129.38
2017-09-21T11:51:32.071Z,129.38
2017-09-21T11:52:32.061Z,129.38
2017-09-21T11:53:32.058Z,129.38
2017-09-21T11:54:32.145Z,129.38
2017-09-21T11:55:32.035Z,129.38
2017-09-21T11:56:32.027Z,129.38
2017-09-21T11:57:32.016Z,129.38
2017-09-21T11:58:32.015Z,123.75
2017-09-21T11:59:32.001Z,123.75
2017-09-21T12:00:32.096Z,129.38
2017-09-21T12:01:31.993Z,123.75
2017-09-21T12:02:31.979Z,123.75
2017-09-21T12:03:31.970Z,123.75
2017-09-21T12:04:31.955Z,123.75
2017-09-21T12:05:31.951Z,123.75
2017-09-21T12:06:32.037Z,123.75
2017-09-21T12:07:31.930Z,123.75
2017-09-21T12:08:31.920Z,123.75
2017-09-21T12:09:31.911Z,123.75
2017-09-21T12:10:31.900Z,123.75
2017-09-21T12:11:31.995Z,123.75
2017-09-21T12:12:31.883Z,123.75
2017-09-21T12:13:31.975Z,123.75
2017-09-21T12:14:31.865Z,123.75
2017-09-21T12:15:31.858Z,123.75
2017-09-21T12:16:31.847Z,123.75
2017-09-21T12:17:31.839Z,123.75
2017-09-21T12:18:31.828Z,123.75
2017-09-21T12:19:31.919Z,123.75
2017-09-21T12:20:31.810Z,118.13
2017-09-21T12:21:31.806Z,118.13
2017-09-21T12:22:31.791Z,118.13
2017-09-21T12:23:31.788Z,118.13
2017-09-21T12:24:31.774Z,118.13
2017-09-21T12:25:31.864Z,118.13
2017-09-21T12:26:31.756Z,118.13
2017-09-21T12:27:31.747Z,118.13
2017-09-21T12:28:31.739Z,118.13
2017-09-21T12:29:31.729Z,118.13
2017-09-21T12:30:31.725Z,118.13
2017-09-21T12:31:31.816Z,118.13
2017-09-21T12:32:31.706Z,118.13
2017-09-21T12:33:31.692Z,118.13
2017-09-21T12:34:31.682Z,118.13
2017-09-21T12:35:31.673Z,118.13
2017-09-21T12:36:31.666Z,118.13
2017-09-21T12:37:31.761Z,118.13
2017-09-21T12:38:31.648Z,118.13
2017-09-21T12:39:31.638Z,118.13
2017-09-21T12:40:31.627Z,118.13
2017-09-21T12:41:31.624Z,118.13
2017-09-21T12:42:31.615Z,118.13
2017-09-21T12:43:31.701Z,118.13
2017-09-21T12:44:31.592Z,118.13
2017-09-21T12:45:31.584Z,118.13
2017-09-21T12:46:31.574Z,118.13
2017-09-21T12:47:31.567Z,118.13
2017-09-21T12:48:31.563Z,118.13
2017-09-21T12:49:31.653Z,118.13